Terminal Aerodrome Forecast
Issued by NWS Wichita, KS

Home | Current Version | Previous Version | Text Only | Print | Product List | Glossary On
Versions: 1 2 3 4 5 6 7 8 9 10 11 12
000
FTUS43 KICT 150522
TAFICT
TAF
KICT 150522Z 1506/1606 33010KT P6SM SCT025 SCT035 BKN060
     FM150800 32008KT P6SM FEW060
     FM151500 27006KT P6SM FEW250
     FM151800 23014KT P6SM FEW250
     FM160000 20007KT P6SM SKC=

USA.gov is the U.S. government's official web portal to all federal, state and local government web resources and services.